sensor_id;sensor_type;location;lat;lon;timestamp;temperature;humidity
43520;DHT22;46848;51.980;5.918;2023-08-30T00:00:40;17.80;66.70
43520;DHT22;46848;51.980;5.918;2023-08-30T00:03:06;17.70;66.70
43520;DHT22;46848;51.980;5.918;2023-08-30T00:05:32;17.80;67.30
43520;DHT22;46848;51.980;5.918;2023-08-30T00:07:58;17.70;66.80
43520;DHT22;46848;51.980;5.918;2023-08-30T00:10:24;17.70;66.90
43520;DHT22;46848;51.980;5.918;2023-08-30T00:12:50;17.70;66.90
43520;DHT22;46848;51.980;5.918;2023-08-30T00:15:16;17.70;66.90
43520;DHT22;46848;51.980;5.918;2023-08-30T00:17:41;17.70;67.00
43520;DHT22;46848;51.980;5.918;2023-08-30T00:20:07;17.70;67.00
43520;DHT22;46848;51.980;5.918;2023-08-30T00:22:34;17.70;67.00
43520;DHT22;46848;51.980;5.918;2023-08-30T00:25:01;17.60;66.80
43520;DHT22;46848;51.980;5.918;2023-08-30T00:27:26;17.60;66.80
43520;DHT22;46848;51.980;5.918;2023-08-30T00:29:52;17.60;66.80
43520;DHT22;46848;51.980;5.918;2023-08-30T00:32:17;17.50;66.90
43520;DHT22;46848;51.980;5.918;2023-08-30T00:34:43;17.50;66.90
43520;DHT22;46848;51.980;5.918;2023-08-30T00:37:08;17.50;66.90
43520;DHT22;46848;51.980;5.918;2023-08-30T00:39:37;17.50;67.00
43520;DHT22;46848;51.980;5.918;2023-08-30T00:42:03;17.50;67.20
43520;DHT22;46848;51.980;5.918;2023-08-30T00:44:31;17.40;67.20
43520;DHT22;46848;51.980;5.918;2023-08-30T00:46:58;17.40;67.30
43520;DHT22;46848;51.980;5.918;2023-08-30T00:49:23;17.40;67.30
43520;DHT22;46848;51.980;5.918;2023-08-30T00:51:49;17.40;67.30
43520;DHT22;46848;51.980;5.918;2023-08-30T00:54:15;17.40;67.40
43520;DHT22;46848;51.980;5.918;2023-08-30T00:56:41;17.40;67.40
43520;DHT22;46848;51.980;5.918;2023-08-30T00:59:07;17.40;67.50
43520;DHT22;46848;51.980;5.918;2023-08-30T01:01:32;17.30;67.40
43520;DHT22;46848;51.980;5.918;2023-08-30T01:03:58;17.30;67.50
43520;DHT22;46848;51.980;5.918;2023-08-30T01:06:24;17.30;67.60
43520;DHT22;46848;51.980;5.918;2023-08-30T01:08:49;17.30;67.60
43520;DHT22;46848;51.980;5.918;2023-08-30T01:14:03;17.30;67.60
43520;DHT22;46848;51.980;5.918;2023-08-30T01:16:30;17.20;67.60
43520;DHT22;46848;51.980;5.918;2023-08-30T01:18:58;17.20;68.20
43520;DHT22;46848;51.980;5.918;2023-08-30T01:24:25;17.20;67.80
43520;DHT22;46848;51.980;5.918;2023-08-30T01:27:11;17.20;67.80
43520;DHT22;46848;51.980;5.918;2023-08-30T01:29:38;17.10;67.80
43520;DHT22;46848;51.980;5.918;2023-08-30T01:32:05;17.10;67.80
43520;DHT22;46848;51.980;5.918;2023-08-30T01:34:31;17.10;67.90
43520;DHT22;46848;51.980;5.918;2023-08-30T01:36:58;17.10;67.90
43520;DHT22;46848;51.980;5.918;2023-08-30T01:39:24;17.10;67.90
43520;DHT22;46848;51.980;5.918;2023-08-30T01:41:50;17.00;68.00
43520;DHT22;46848;51.980;5.918;2023-08-30T01:44:21;17.00;68.00
43520;DHT22;46848;51.980;5.918;2023-08-30T01:46:47;17.00;68.00
43520;DHT22;46848;51.980;5.918;2023-08-30T01:49:13;17.00;68.10
43520;DHT22;46848;51.980;5.918;2023-08-30T01:51:39;17.00;68.20
43520;DHT22;46848;51.980;5.918;2023-08-30T01:54:06;16.90;68.20
43520;DHT22;46848;51.980;5.918;2023-08-30T01:56:33;16.90;68.30
43520;DHT22;46848;51.980;5.918;2023-08-30T01:58:58;16.90;68.30
43520;DHT22;46848;51.980;5.918;2023-08-30T02:21:16;16.90;68.60
43520;DHT22;46848;51.980;5.918;2023-08-30T02:23:42;16.90;68.50
43520;DHT22;46848;51.980;5.918;2023-08-30T02:26:08;17.00;68.60
43520;DHT22;46848;51.980;5.918;2023-08-30T02:28:33;17.00;68.70
43520;DHT22;46848;51.980;5.918;2023-08-30T02:30:59;17.00;68.80
43520;DHT22;46848;51.980;5.918;2023-08-30T02:33:25;17.00;68.70
43520;DHT22;46848;51.980;5.918;2023-08-30T02:35:50;17.00;68.60
43520;DHT22;46848;51.980;5.918;2023-08-30T02:38:16;17.00;68.80
43520;DHT22;46848;51.980;5.918;2023-08-30T02:40:42;17.00;68.80
43520;DHT22;46848;51.980;5.918;2023-08-30T02:43:08;17.00;68.70
43520;DHT22;46848;51.980;5.918;2023-08-30T02:45:35;17.10;68.80
43520;DHT22;46848;51.980;5.918;2023-08-30T02:48:01;17.10;68.70
43520;DHT22;46848;51.980;5.918;2023-08-30T02:50:27;17.20;68.90
43520;DHT22;46848;51.980;5.918;2023-08-30T02:52:52;17.20;69.40
43520;DHT22;46848;51.980;5.918;2023-08-30T02:55:18;17.20;68.70
43520;DHT22;46848;51.980;5.918;2023-08-30T02:57:44;17.20;68.60
43520;DHT22;46848;51.980;5.918;2023-08-30T03:00:10;17.20;68.60
43520;DHT22;46848;51.980;5.918;2023-08-30T03:02:35;17.20;68.70
43520;DHT22;46848;51.980;5.918;2023-08-30T03:05:01;17.20;68.70
43520;DHT22;46848;51.980;5.918;2023-08-30T03:07:28;17.20;68.70
43520;DHT22;46848;51.980;5.918;2023-08-30T03:09:55;17.20;68.70
43520;DHT22;46848;51.980;5.918;2023-08-30T03:12:20;17.20;68.60
43520;DHT22;46848;51.980;5.918;2023-08-30T03:14:46;17.20;68.50
43520;DHT22;46848;51.980;5.918;2023-08-30T03:17:12;17.20;68.50
43520;DHT22;46848;51.980;5.918;2023-08-30T03:19:38;17.20;68.40
43520;DHT22;46848;51.980;5.918;2023-08-30T03:22:03;17.20;68.40
43520;DHT22;46848;51.980;5.918;2023-08-30T03:24:29;17.20;68.40
43520;DHT22;46848;51.980;5.918;2023-08-30T03:26:55;17.30;68.40
43520;DHT22;46848;51.980;5.918;2023-08-30T03:29:20;17.20;68.30
43520;DHT22;46848;51.980;5.918;2023-08-30T03:31:46;17.20;68.30
43520;DHT22;46848;51.980;5.918;2023-08-30T03:34:12;17.20;68.30
43520;DHT22;46848;51.980;5.918;2023-08-30T03:36:38;17.20;68.30
43520;DHT22;46848;51.980;5.918;2023-08-30T03:39:04;17.10;68.20
43520;DHT22;46848;51.980;5.918;2023-08-30T03:41:30;17.20;68.40
43520;DHT22;46848;51.980;5.918;2023-08-30T03:43:56;17.20;68.40
43520;DHT22;46848;51.980;5.918;2023-08-30T03:46:21;17.10;68.20
43520;DHT22;46848;51.980;5.918;2023-08-30T03:48:47;17.10;68.80
43520;DHT22;46848;51.980;5.918;2023-08-30T03:51:12;17.10;68.10
43520;DHT22;46848;51.980;5.918;2023-08-30T03:53:38;17.10;68.00
43520;DHT22;46848;51.980;5.918;2023-08-30T03:56:04;17.10;68.00
43520;DHT22;46848;51.980;5.918;2023-08-30T03:58:29;17.10;68.00
43520;DHT22;46848;51.980;5.918;2023-08-30T04:00:56;17.10;68.00
43520;DHT22;46848;51.980;5.918;2023-08-30T04:03:22;17.10;67.90
43520;DHT22;46848;51.980;5.918;2023-08-30T04:05:48;17.10;68.00
43520;DHT22;46848;51.980;5.918;2023-08-30T04:08:13;17.00;67.80
43520;DHT22;46848;51.980;5.918;2023-08-30T04:10:40;17.00;67.90
43520;DHT22;46848;51.980;5.918;2023-08-30T04:13:07;17.00;68.70
43520;DHT22;46848;51.980;5.918;2023-08-30T04:15:34;16.90;68.20
43520;DHT22;46848;51.980;5.918;2023-08-30T04:18:01;16.80;68.30
43520;DHT22;46848;51.980;5.918;2023-08-30T04:20:26;16.80;68.30
43520;DHT22;46848;51.980;5.918;2023-08-30T04:22:52;16.80;68.20
43520;DHT22;46848;51.980;5.918;2023-08-30T04:25:18;16.80;68.20
43520;DHT22;46848;51.980;5.918;2023-08-30T04:27:44;16.80;68.20
43520;DHT22;46848;51.980;5.918;2023-08-30T04:30:10;16.80;68.30
43520;DHT22;46848;51.980;5.918;2023-08-30T04:32:36;16.80;68.30
43520;DHT22;46848;51.980;5.918;2023-08-30T04:35:01;16.70;68.40
43520;DHT22;46848;51.980;5.918;2023-08-30T04:37:30;16.70;68.50
43520;DHT22;46848;51.980;5.918;2023-08-30T04:39:59;16.70;68.60
43520;DHT22;46848;51.980;5.918;2023-08-30T04:42:25;16.60;68.70
43520;DHT22;46848;51.980;5.918;2023-08-30T04:44:51;16.60;68.70
43520;DHT22;46848;51.980;5.918;2023-08-30T04:47:17;16.50;68.70
43520;DHT22;46848;51.980;5.918;2023-08-30T04:49:43;16.50;68.80
43520;DHT22;46848;51.980;5.918;2023-08-30T04:52:08;16.50;68.80
43520;DHT22;46848;51.980;5.918;2023-08-30T04:54:34;16.50;68.80
43520;DHT22;46848;51.980;5.918;2023-08-30T04:57:00;16.50;68.90
43520;DHT22;46848;51.980;5.918;2023-08-30T04:59:25;16.50;68.90
43520;DHT22;46848;51.980;5.918;2023-08-30T05:01:51;16.40;68.90
43520;DHT22;46848;51.980;5.918;2023-08-30T05:04:17;16.40;69.00
43520;DHT22;46848;51.980;5.918;2023-08-30T05:06:43;16.40;69.10
43520;DHT22;46848;51.980;5.918;2023-08-30T05:09:09;16.30;69.00
43520;DHT22;46848;51.980;5.918;2023-08-30T05:11:36;16.30;69.20
43520;DHT22;46848;51.980;5.918;2023-08-30T05:14:01;16.30;69.50
43520;DHT22;46848;51.980;5.918;2023-08-30T05:16:27;16.30;69.50
43520;DHT22;46848;51.980;5.918;2023-08-30T05:18:52;16.20;69.70
43520;DHT22;46848;51.980;5.918;2023-08-30T05:21:18;16.20;69.80
43520;DHT22;46848;51.980;5.918;2023-08-30T05:23:44;16.20;69.90
43520;DHT22;46848;51.980;5.918;2023-08-30T05:26:10;16.20;69.90
43520;DHT22;46848;51.980;5.918;2023-08-30T05:28:39;16.20;69.90
43520;DHT22;46848;51.980;5.918;2023-08-30T05:31:04;16.20;69.90
43520;DHT22;46848;51.980;5.918;2023-08-30T05:33:31;16.30;69.90
43520;DHT22;46848;51.980;5.918;2023-08-30T05:35:56;16.30;69.80
43520;DHT22;46848;51.980;5.918;2023-08-30T05:38:22;16.30;69.70
43520;DHT22;46848;51.980;5.918;2023-08-30T05:40:48;16.40;69.70
43520;DHT22;46848;51.980;5.918;2023-08-30T05:43:13;16.50;69.60
43520;DHT22;46848;51.980;5.918;2023-08-30T05:45:40;16.60;69.60
43520;DHT22;46848;51.980;5.918;2023-08-30T05:48:06;16.60;69.50
43520;DHT22;46848;51.980;5.918;2023-08-30T05:50:31;16.80;69.40
43520;DHT22;46848;51.980;5.918;2023-08-30T05:52:57;16.90;69.20
43520;DHT22;46848;51.980;5.918;2023-08-30T05:55:22;16.90;69.20
43520;DHT22;46848;51.980;5.918;2023-08-30T05:57:48;16.90;69.10
43520;DHT22;46848;51.980;5.918;2023-08-30T06:00:14;17.00;69.20
43520;DHT22;46848;51.980;5.918;2023-08-30T06:02:40;17.00;69.20
43520;DHT22;46848;51.980;5.918;2023-08-30T06:05:06;17.10;69.20
43520;DHT22;46848;51.980;5.918;2023-08-30T06:07:32;17.10;69.00
43520;DHT22;46848;51.980;5.918;2023-08-30T06:09:58;17.10;69.00
43520;DHT22;46848;51.980;5.918;2023-08-30T06:12:23;17.20;69.00
43520;DHT22;46848;51.980;5.918;2023-08-30T06:14:51;17.20;68.80
43520;DHT22;46848;51.980;5.918;2023-08-30T06:17:18;17.30;68.70
43520;DHT22;46848;51.980;5.918;2023-08-30T06:19:47;17.30;69.00
43520;DHT22;46848;51.980;5.918;2023-08-30T06:22:13;17.30;69.30
43520;DHT22;46848;51.980;5.918;2023-08-30T06:24:39;17.20;69.60
43520;DHT22;46848;51.980;5.918;2023-08-30T06:27:05;17.30;69.40
43520;DHT22;46848;51.980;5.918;2023-08-30T06:29:31;17.30;69.50
43520;DHT22;46848;51.980;5.918;2023-08-30T06:31:57;17.30;69.50
43520;DHT22;46848;51.980;5.918;2023-08-30T06:34:23;17.20;69.40
43520;DHT22;46848;51.980;5.918;2023-08-30T06:36:49;17.20;69.40
43520;DHT22;46848;51.980;5.918;2023-08-30T06:39:14;17.20;69.50
43520;DHT22;46848;51.980;5.918;2023-08-30T06:41:40;17.20;69.50
43520;DHT22;46848;51.980;5.918;2023-08-30T06:44:05;17.20;69.60
43520;DHT22;46848;51.980;5.918;2023-08-30T06:46:31;17.20;69.70
43520;DHT22;46848;51.980;5.918;2023-08-30T06:48:56;17.20;69.90
43520;DHT22;46848;51.980;5.918;2023-08-30T06:51:22;17.20;69.80
43520;DHT22;46848;51.980;5.918;2023-08-30T06:53:48;17.30;69.80
43520;DHT22;46848;51.980;5.918;2023-08-30T06:56:13;17.30;69.70
43520;DHT22;46848;51.980;5.918;2023-08-30T06:58:39;17.40;69.70
43520;DHT22;46848;51.980;5.918;2023-08-30T07:01:05;17.40;69.60
43520;DHT22;46848;51.980;5.918;2023-08-30T07:03:31;17.50;69.70
43520;DHT22;46848;51.980;5.918;2023-08-30T07:05:56;17.50;69.70
43520;DHT22;46848;51.980;5.918;2023-08-30T07:08:22;17.60;69.70
43520;DHT22;46848;51.980;5.918;2023-08-30T07:10:47;17.50;69.70
43520;DHT22;46848;51.980;5.918;2023-08-30T07:13:13;17.50;69.90
43520;DHT22;46848;51.980;5.918;2023-08-30T07:15:40;17.50;69.80
43520;DHT22;46848;51.980;5.918;2023-08-30T07:18:07;17.60;70.40
43520;DHT22;46848;51.980;5.918;2023-08-30T07:20:33;17.60;69.50
43520;DHT22;46848;51.980;5.918;2023-08-30T07:22:59;17.70;69.50
43520;DHT22;46848;51.980;5.918;2023-08-30T07:25:24;17.60;69.50
43520;DHT22;46848;51.980;5.918;2023-08-30T07:27:50;17.70;69.60
43520;DHT22;46848;51.980;5.918;2023-08-30T07:30:16;17.70;69.40
43520;DHT22;46848;51.980;5.918;2023-08-30T07:32:42;17.70;69.20
43520;DHT22;46848;51.980;5.918;2023-08-30T07:35:07;17.60;68.70
43520;DHT22;46848;51.980;5.918;2023-08-30T07:37:34;17.60;68.50
43520;DHT22;46848;51.980;5.918;2023-08-30T07:40:00;17.50;68.90
43520;DHT22;46848;51.980;5.918;2023-08-30T07:42:25;17.50;69.10
43520;DHT22;46848;51.980;5.918;2023-08-30T07:44:51;17.60;69.30
43520;DHT22;46848;51.980;5.918;2023-08-30T07:47:16;17.50;69.60
43520;DHT22;46848;51.980;5.918;2023-08-30T07:49:42;17.50;69.70
43520;DHT22;46848;51.980;5.918;2023-08-30T07:52:07;17.40;69.90
43520;DHT22;46848;51.980;5.918;2023-08-30T07:54:37;17.40;70.10
43520;DHT22;46848;51.980;5.918;2023-08-30T07:57:04;17.40;70.60
43520;DHT22;46848;51.980;5.918;2023-08-30T07:59:32;17.30;70.40
43520;DHT22;46848;51.980;5.918;2023-08-30T08:01:58;17.30;70.90
43520;DHT22;46848;51.980;5.918;2023-08-30T08:04:23;17.20;71.40
43520;DHT22;46848;51.980;5.918;2023-08-30T08:06:49;17.10;72.30
43520;DHT22;46848;51.980;5.918;2023-08-30T08:09:14;17.10;72.60
43520;DHT22;46848;51.980;5.918;2023-08-30T08:11:40;17.00;72.70
43520;DHT22;46848;51.980;5.918;2023-08-30T08:14:09;16.90;75.00
43520;DHT22;46848;51.980;5.918;2023-08-30T08:16:35;16.80;74.20
43520;DHT22;46848;51.980;5.918;2023-08-30T08:19:01;16.70;74.10
43520;DHT22;46848;51.980;5.918;2023-08-30T08:21:27;16.60;74.90
43520;DHT22;46848;51.980;5.918;2023-08-30T08:23:52;16.60;74.90
43520;DHT22;46848;51.980;5.918;2023-08-30T08:26:18;16.50;76.80
43520;DHT22;46848;51.980;5.918;2023-08-30T08:28:44;16.50;75.90
43520;DHT22;46848;51.980;5.918;2023-08-30T08:31:10;16.50;76.10
43520;DHT22;46848;51.980;5.918;2023-08-30T08:33:36;16.40;76.10
43520;DHT22;46848;51.980;5.918;2023-08-30T08:36:02;16.30;75.80
43520;DHT22;46848;51.980;5.918;2023-08-30T08:38:27;16.30;76.80
43520;DHT22;46848;51.980;5.918;2023-08-30T08:41:02;16.30;78.20
43520;DHT22;46848;51.980;5.918;2023-08-30T08:43:29;16.20;78.40
43520;DHT22;46848;51.980;5.918;2023-08-30T08:46:06;16.10;79.30
43520;DHT22;46848;51.980;5.918;2023-08-30T08:48:34;16.10;79.80
43520;DHT22;46848;51.980;5.918;2023-08-30T08:51:01;16.10;80.60
43520;DHT22;46848;51.980;5.918;2023-08-30T08:53:27;16.00;81.90
43520;DHT22;46848;51.980;5.918;2023-08-30T08:55:54;15.90;81.90
43520;DHT22;46848;51.980;5.918;2023-08-30T08:58:21;15.90;81.70
43520;DHT22;46848;51.980;5.918;2023-08-30T09:00:47;15.90;81.70
43520;DHT22;46848;51.980;5.918;2023-08-30T09:03:13;15.90;81.80
43520;DHT22;46848;51.980;5.918;2023-08-30T09:05:40;15.90;81.40
43520;DHT22;46848;51.980;5.918;2023-08-30T09:08:06;15.90;83.70
43520;DHT22;46848;51.980;5.918;2023-08-30T09:10:32;15.90;82.70
43520;DHT22;46848;51.980;5.918;2023-08-30T09:12:59;15.90;82.90
43520;DHT22;46848;51.980;5.918;2023-08-30T09:15:31;15.90;82.90
43520;DHT22;46848;51.980;5.918;2023-08-30T09:17:57;15.90;82.90
43520;DHT22;46848;51.980;5.918;2023-08-30T09:20:23;15.90;82.90
43520;DHT22;46848;51.980;5.918;2023-08-30T09:22:49;16.00;82.40
43520;DHT22;46848;51.980;5.918;2023-08-30T09:25:26;16.00;83.80
43520;DHT22;46848;51.980;5.918;2023-08-30T09:27:57;15.90;83.90
43520;DHT22;46848;51.980;5.918;2023-08-30T09:30:26;15.90;83.60
43520;DHT22;46848;51.980;5.918;2023-08-30T09:32:51;16.00;83.60
43520;DHT22;46848;51.980;5.918;2023-08-30T09:35:17;15.90;84.10
43520;DHT22;46848;51.980;5.918;2023-08-30T09:37:45;16.00;83.70
43520;DHT22;46848;51.980;5.918;2023-08-30T09:40:11;16.00;82.70
43520;DHT22;46848;51.980;5.918;2023-08-30T09:42:43;16.00;83.10
43520;DHT22;46848;51.980;5.918;2023-08-30T09:45:38;16.10;82.80
43520;DHT22;46848;51.980;5.918;2023-08-30T09:48:05;16.10;83.20
43520;DHT22;46848;51.980;5.918;2023-08-30T09:50:34;16.20;82.60
43520;DHT22;46848;51.980;5.918;2023-08-30T09:53:14;16.20;81.90
43520;DHT22;46848;51.980;5.918;2023-08-30T09:55:41;16.20;82.50
43520;DHT22;46848;51.980;5.918;2023-08-30T09:58:08;16.20;82.00
43520;DHT22;46848;51.980;5.918;2023-08-30T10:00:35;16.20;81.30
43520;DHT22;46848;51.980;5.918;2023-08-30T10:03:01;16.30;81.80
43520;DHT22;46848;51.980;5.918;2023-08-30T10:05:27;16.30;81.50
43520;DHT22;46848;51.980;5.918;2023-08-30T10:07:53;16.40;82.30
43520;DHT22;46848;51.980;5.918;2023-08-30T10:10:20;16.40;81.90
43520;DHT22;46848;51.980;5.918;2023-08-30T10:12:46;16.50;81.80
43520;DHT22;46848;51.980;5.918;2023-08-30T10:15:12;16.50;81.40
43520;DHT22;46848;51.980;5.918;2023-08-30T10:17:38;16.60;81.10
43520;DHT22;46848;51.980;5.918;2023-08-30T10:20:07;16.60;81.40
43520;DHT22;46848;51.980;5.918;2023-08-30T10:22:36;16.70;81.50
43520;DHT22;46848;51.980;5.918;2023-08-30T10:25:06;16.80;80.80
43520;DHT22;46848;51.980;5.918;2023-08-30T10:27:33;16.70;80.40
43520;DHT22;46848;51.980;5.918;2023-08-30T10:30:02;16.80;80.30
43520;DHT22;46848;51.980;5.918;2023-08-30T10:32:29;16.80;80.20
43520;DHT22;46848;51.980;5.918;2023-08-30T10:34:55;16.90;80.30
43520;DHT22;46848;51.980;5.918;2023-08-30T10:37:26;16.90;80.10
43520;DHT22;46848;51.980;5.918;2023-08-30T10:39:52;17.10;80.00
43520;DHT22;46848;51.980;5.918;2023-08-30T10:42:22;17.00;79.90
43520;DHT22;46848;51.980;5.918;2023-08-30T10:44:49;17.10;79.80
43520;DHT22;46848;51.980;5.918;2023-08-30T10:47:25;17.20;79.70
43520;DHT22;46848;51.980;5.918;2023-08-30T10:49:57;17.20;79.60
43520;DHT22;46848;51.980;5.918;2023-08-30T10:52:24;17.20;80.50
43520;DHT22;46848;51.980;5.918;2023-08-30T10:54:51;17.30;80.70
43520;DHT22;46848;51.980;5.918;2023-08-30T10:57:24;17.40;80.70
43520;DHT22;46848;51.980;5.918;2023-08-30T11:00:10;17.50;81.20
43520;DHT22;46848;51.980;5.918;2023-08-30T11:02:37;17.60;81.10
43520;DHT22;46848;51.980;5.918;2023-08-30T11:05:06;17.70;81.20
43520;DHT22;46848;51.980;5.918;2023-08-30T11:07:32;17.80;81.20
43520;DHT22;46848;51.980;5.918;2023-08-30T11:09:58;17.80;82.00
43520;DHT22;46848;51.980;5.918;2023-08-30T11:12:24;17.80;81.50
43520;DHT22;46848;51.980;5.918;2023-08-30T11:14:55;18.00;81.50
43520;DHT22;46848;51.980;5.918;2023-08-30T11:17:21;18.10;81.60
43520;DHT22;46848;51.980;5.918;2023-08-30T11:19:50;18.20;81.90
43520;DHT22;46848;51.980;5.918;2023-08-30T11:22:16;18.30;81.60
43520;DHT22;46848;51.980;5.918;2023-08-30T11:24:43;18.50;81.40
43520;DHT22;46848;51.980;5.918;2023-08-30T11:27:09;18.50;80.80
43520;DHT22;46848;51.980;5.918;2023-08-30T11:29:35;18.50;80.70
43520;DHT22;46848;51.980;5.918;2023-08-30T11:32:00;18.60;80.70
43520;DHT22;46848;51.980;5.918;2023-08-30T11:34:26;18.60;80.60
43520;DHT22;46848;51.980;5.918;2023-08-30T11:36:52;18.70;80.60
43520;DHT22;46848;51.980;5.918;2023-08-30T11:39:17;18.70;80.40
43520;DHT22;46848;51.980;5.918;2023-08-30T11:41:43;18.70;80.10
43520;DHT22;46848;51.980;5.918;2023-08-30T11:44:09;18.70;80.00
43520;DHT22;46848;51.980;5.918;2023-08-30T11:46:35;18.80;79.90
43520;DHT22;46848;51.980;5.918;2023-08-30T11:49:01;18.80;79.80
43520;DHT22;46848;51.980;5.918;2023-08-30T11:51:28;19.00;79.70
43520;DHT22;46848;51.980;5.918;2023-08-30T11:53:55;19.20;79.60
43520;DHT22;46848;51.980;5.918;2023-08-30T11:56:21;19.30;79.20
43520;DHT22;46848;51.980;5.918;2023-08-30T11:58:48;19.60;79.10
43520;DHT22;46848;51.980;5.918;2023-08-30T12:01:14;19.90;79.00
43520;DHT22;46848;51.980;5.918;2023-08-30T12:03:40;20.10;78.50
43520;DHT22;46848;51.980;5.918;2023-08-30T12:06:12;20.50;77.90
43520;DHT22;46848;51.980;5.918;2023-08-30T12:08:38;20.60;76.10
43520;DHT22;46848;51.980;5.918;2023-08-30T12:11:03;20.80;75.50
43520;DHT22;46848;51.980;5.918;2023-08-30T12:13:31;21.00;74.60
43520;DHT22;46848;51.980;5.918;2023-08-30T12:15:58;21.10;73.40
43520;DHT22;46848;51.980;5.918;2023-08-30T12:18:26;21.20;73.00
43520;DHT22;46848;51.980;5.918;2023-08-30T12:20:57;21.20;72.30
43520;DHT22;46848;51.980;5.918;2023-08-30T12:23:24;21.10;71.30
43520;DHT22;46848;51.980;5.918;2023-08-30T12:26:16;21.10;70.50
43520;DHT22;46848;51.980;5.918;2023-08-30T12:28:42;21.00;70.40
43520;DHT22;46848;51.980;5.918;2023-08-30T12:31:10;20.90;70.10
43520;DHT22;46848;51.980;5.918;2023-08-30T12:33:36;20.80;69.30
43520;DHT22;46848;51.980;5.918;2023-08-30T12:36:03;20.70;69.00
43520;DHT22;46848;51.980;5.918;2023-08-30T12:38:29;20.70;69.00
43520;DHT22;46848;51.980;5.918;2023-08-30T12:40:55;20.70;68.90
43520;DHT22;46848;51.980;5.918;2023-08-30T12:43:22;20.80;68.40
43520;DHT22;46848;51.980;5.918;2023-08-30T12:45:49;20.80;68.60
43520;DHT22;46848;51.980;5.918;2023-08-30T12:48:16;20.90;68.60
43520;DHT22;46848;51.980;5.918;2023-08-30T12:50:44;21.00;68.40
43520;DHT22;46848;51.980;5.918;2023-08-30T12:53:10;21.00;68.00
43520;DHT22;46848;51.980;5.918;2023-08-30T12:55:36;21.00;67.90
43520;DHT22;46848;51.980;5.918;2023-08-30T12:58:02;21.10;67.50
43520;DHT22;46848;51.980;5.918;2023-08-30T13:00:27;21.20;67.40
43520;DHT22;46848;51.980;5.918;2023-08-30T13:02:53;21.20;67.20
43520;DHT22;46848;51.980;5.918;2023-08-30T13:05:19;21.30;67.00
43520;DHT22;46848;51.980;5.918;2023-08-30T13:07:45;21.40;66.70
43520;DHT22;46848;51.980;5.918;2023-08-30T13:10:11;21.30;66.20
43520;DHT22;46848;51.980;5.918;2023-08-30T13:12:36;21.30;66.20
43520;DHT22;46848;51.980;5.918;2023-08-30T13:15:03;21.40;66.10
43520;DHT22;46848;51.980;5.918;2023-08-30T13:17:29;21.40;66.00
43520;DHT22;46848;51.980;5.918;2023-08-30T13:19:54;21.60;65.90
43520;DHT22;46848;51.980;5.918;2023-08-30T13:22:22;21.70;65.50
43520;DHT22;46848;51.980;5.918;2023-08-30T13:24:47;22.00;65.20
43520;DHT22;46848;51.980;5.918;2023-08-30T13:27:13;22.20;64.80
43520;DHT22;46848;51.980;5.918;2023-08-30T13:29:39;22.40;64.30
43520;DHT22;46848;51.980;5.918;2023-08-30T13:32:05;22.60;63.70
43520;DHT22;46848;51.980;5.918;2023-08-30T13:34:30;22.70;62.70
43520;DHT22;46848;51.980;5.918;2023-08-30T13:36:56;22.80;63.10
43520;DHT22;46848;51.980;5.918;2023-08-30T13:39:22;22.80;62.10
43520;DHT22;46848;51.980;5.918;2023-08-30T13:41:47;22.90;62.20
43520;DHT22;46848;51.980;5.918;2023-08-30T13:44:13;22.90;61.90
43520;DHT22;46848;51.980;5.918;2023-08-30T13:46:39;22.90;61.50
43520;DHT22;46848;51.980;5.918;2023-08-30T13:49:05;22.90;60.50
43520;DHT22;46848;51.980;5.918;2023-08-30T13:51:31;22.80;60.70
43520;DHT22;46848;51.980;5.918;2023-08-30T13:53:56;22.80;60.50
43520;DHT22;46848;51.980;5.918;2023-08-30T13:56:23;22.90;60.40
43520;DHT22;46848;51.980;5.918;2023-08-30T13:58:49;23.00;59.60
43520;DHT22;46848;51.980;5.918;2023-08-30T14:01:14;23.00;59.60
43520;DHT22;46848;51.980;5.918;2023-08-30T14:03:40;23.20;59.60
43520;DHT22;46848;51.980;5.918;2023-08-30T14:06:05;23.40;58.60
43520;DHT22;46848;51.980;5.918;2023-08-30T14:08:33;23.50;58.10
43520;DHT22;46848;51.980;5.918;2023-08-30T14:10:58;23.70;57.60
43520;DHT22;46848;51.980;5.918;2023-08-30T14:13:24;23.80;56.80
43520;DHT22;46848;51.980;5.918;2023-08-30T14:15:49;23.90;56.50
43520;DHT22;46848;51.980;5.918;2023-08-30T14:18:15;24.00;56.20
43520;DHT22;46848;51.980;5.918;2023-08-30T14:20:42;23.90;55.70
43520;DHT22;46848;51.980;5.918;2023-08-30T14:23:08;23.80;55.80
43520;DHT22;46848;51.980;5.918;2023-08-30T14:25:34;23.70;55.60
43520;DHT22;46848;51.980;5.918;2023-08-30T14:28:00;23.70;55.40
43520;DHT22;46848;51.980;5.918;2023-08-30T14:30:26;23.70;55.10
43520;DHT22;46848;51.980;5.918;2023-08-30T14:32:51;23.80;54.90
43520;DHT22;46848;51.980;5.918;2023-08-30T14:35:17;23.80;54.30
43520;DHT22;46848;51.980;5.918;2023-08-30T14:37:46;23.80;53.80
43520;DHT22;46848;51.980;5.918;2023-08-30T14:40:13;23.80;53.70
43520;DHT22;46848;51.980;5.918;2023-08-30T14:42:39;23.80;53.60
43520;DHT22;46848;51.980;5.918;2023-08-30T14:45:06;23.90;54.20
43520;DHT22;46848;51.980;5.918;2023-08-30T14:47:33;23.90;54.00
43520;DHT22;46848;51.980;5.918;2023-08-30T14:49:59;23.90;54.20
43520;DHT22;46848;51.980;5.918;2023-08-30T14:52:26;23.90;54.40
43520;DHT22;46848;51.980;5.918;2023-08-30T14:54:52;24.00;54.00
43520;DHT22;46848;51.980;5.918;2023-08-30T14:57:18;23.80;53.80
43520;DHT22;46848;51.980;5.918;2023-08-30T14:59:43;23.70;54.10
43520;DHT22;46848;51.980;5.918;2023-08-30T15:02:09;23.60;54.40
43520;DHT22;46848;51.980;5.918;2023-08-30T15:04:34;23.50;54.90
43520;DHT22;46848;51.980;5.918;2023-08-30T15:07:00;23.50;54.40
43520;DHT22;46848;51.980;5.918;2023-08-30T15:09:25;23.50;54.70
43520;DHT22;46848;51.980;5.918;2023-08-30T15:11:51;23.50;54.50
43520;DHT22;46848;51.980;5.918;2023-08-30T15:14:17;23.50;53.90
43520;DHT22;46848;51.980;5.918;2023-08-30T15:16:42;23.50;54.00
43520;DHT22;46848;51.980;5.918;2023-08-30T15:19:08;23.50;54.40
43520;DHT22;46848;51.980;5.918;2023-08-30T15:21:35;23.50;54.20
43520;DHT22;46848;51.980;5.918;2023-08-30T15:24:00;23.40;54.70
43520;DHT22;46848;51.980;5.918;2023-08-30T15:26:26;23.40;54.90
43520;DHT22;46848;51.980;5.918;2023-08-30T15:28:53;23.40;54.70
43520;DHT22;46848;51.980;5.918;2023-08-30T15:31:19;23.40;54.80
43520;DHT22;46848;51.980;5.918;2023-08-30T15:33:45;23.30;54.60
43520;DHT22;46848;51.980;5.918;2023-08-30T15:36:11;23.20;55.10
43520;DHT22;46848;51.980;5.918;2023-08-30T15:38:36;23.20;54.90
43520;DHT22;46848;51.980;5.918;2023-08-30T15:41:11;23.20;55.10
43520;DHT22;46848;51.980;5.918;2023-08-30T15:43:41;23.10;53.90
43520;DHT22;46848;51.980;5.918;2023-08-30T15:46:09;23.00;54.50
43520;DHT22;46848;51.980;5.918;2023-08-30T15:48:38;22.90;55.00
43520;DHT22;46848;51.980;5.918;2023-08-30T15:51:04;22.90;55.30